Time;durP1;ratioP1;P1;durP2;ratioP2;P2;SDS_P1;SDS_P2;PMS_P1;PMS_P2;Temp;Humidity;BMP_temperature;BMP_pressure;BME280_temperature;BME280_humidity;BME280_pressure;Samples;Min_cycle;Max_cycle;Signal;HPM_P1;HPM_P2
2023/03/18 00:00:08;;;;;;;2.90;1.50;;;14.30;99.90;;;;;;5068172;28;20459;-72
2023/03/18 00:02:35;;;;;;;2.63;2.00;;;14.00;99.90;;;;;;5074008;28;20446;-72
2023/03/18 00:05:03;;;;;;;7.27;2.70;;;14.00;99.90;;;;;;5074866;28;21007;-73
2023/03/18 00:07:34;;;;;;;4.37;1.90;;;14.10;99.90;;;;;;5050840;28;20558;-73
2023/03/18 00:10:02;;;;;;;3.80;1.70;;;14.20;99.90;;;;;;5071417;28;20998;-73
2023/03/18 00:12:30;;;;;;;3.00;1.90;;;14.10;99.90;;;;;;5064380;28;20574;-73
2023/03/18 00:14:57;;;;;;;3.87;1.90;;;14.10;99.90;;;;;;5086352;28;20493;-73
2023/03/18 00:17:25;;;;;;;8.20;2.60;;;14.00;99.90;;;;;;5074392;28;20466;-72
2023/03/18 00:19:52;;;;;;;2.17;1.60;;;13.90;99.90;;;;;;5074173;28;20435;-73
2023/03/18 00:22:19;;;;;;;2.70;1.47;;;13.70;99.90;;;;;;5068600;28;20455;-73
2023/03/18 00:24:48;;;;;;;2.63;2.00;;;13.80;99.90;;;;;;5070853;28;20512;-73
2023/03/18 00:27:15;;;;;;;13.30;2.80;;;13.80;99.90;;;;;;5069247;28;20612;-73
2023/03/18 00:29:43;;;;;;;10.93;2.10;;;13.90;99.90;;;;;;5073415;28;20470;-73
2023/03/18 00:32:10;;;;;;;2.80;1.70;;;13.80;99.90;;;;;;5074275;28;20451;-73
2023/03/18 00:34:36;;;;;;;1.60;1.37;;;13.80;99.90;;;;;;5069047;28;20454;-72
2023/03/18 00:37:04;;;;;;;4.67;2.60;;;13.70;99.90;;;;;;5070719;28;20514;-72
2023/03/18 00:39:31;;;;;;;3.50;2.40;;;13.70;99.90;;;;;;5073205;28;20475;-73
2023/03/18 00:42:09;;;;;;;2.50;1.80;;;13.80;99.90;;;;;;5068726;28;20486;-73
2023/03/18 00:44:37;;;;;;;3.77;2.17;;;13.70;99.90;;;;;;5074816;28;20537;-73
2023/03/18 00:47:04;;;;;;;4.17;2.20;;;13.50;99.90;;;;;;5074493;28;20493;-72
2023/03/18 00:49:32;;;;;;;2.70;2.00;;;13.40;99.90;;;;;;5072548;28;20578;-72
2023/03/18 00:51:59;;;;;;;3.00;1.53;;;13.50;99.90;;;;;;5062424;28;20482;-72
2023/03/18 00:54:27;;;;;;;2.20;2.00;;;13.40;99.90;;;;;;5072619;28;21006;-72
2023/03/18 00:56:54;;;;;;;2.50;1.60;;;13.50;99.90;;;;;;5068549;28;20502;-72
2023/03/18 00:59:22;;;;;;;3.10;2.07;;;13.50;99.90;;;;;;5071900;28;20442;-72
2023/03/18 01:01:49;;;;;;;4.57;1.97;;;13.40;99.90;;;;;;5061887;28;20466;-72
2023/03/18 01:04:17;;;;;;;1.50;1.40;;;13.50;99.90;;;;;;5065513;28;21034;-72
2023/03/18 01:06:44;;;;;;;3.97;2.13;;;13.40;99.90;;;;;;5037328;28;20490;-72
2023/03/18 01:09:11;;;;;;;3.87;1.60;;;13.40;99.90;;;;;;5068982;28;20474;-72
2023/03/18 01:11:38;;;;;;;8.43;2.63;;;13.50;99.90;;;;;;5064144;28;20953;-72
2023/03/18 01:14:05;;;;;;;3.93;1.67;;;13.50;99.90;;;;;;5067072;28;20917;-72
2023/03/18 01:16:33;;;;;;;3.87;1.80;;;13.40;99.90;;;;;;5070611;28;20509;-72
2023/03/18 01:19:00;;;;;;;1.50;1.37;;;13.40;99.90;;;;;;5071276;28;20542;-72
2023/03/18 01:21:27;;;;;;;7.00;1.67;;;13.20;99.90;;;;;;5092393;28;20466;-72
2023/03/18 01:23:54;;;;;;;2.60;2.30;;;13.30;99.90;;;;;;5082438;28;20794;-72
2023/03/18 01:26:22;;;;;;;3.10;2.00;;;13.40;99.90;;;;;;5062905;28;20467;-72
2023/03/18 01:28:49;;;;;;;6.70;2.40;;;13.30;99.90;;;;;;5073558;28;20452;-72
2023/03/18 01:31:16;;;;;;;4.17;2.30;;;13.20;99.90;;;;;;5073018;28;20447;-72
2023/03/18 01:33:46;;;;;;;4.07;1.90;;;13.10;99.90;;;;;;5060761;28;20637;-72
2023/03/18 01:36:14;;;;;;;2.00;1.47;;;13.00;99.90;;;;;;5073701;28;20498;-72
2023/03/18 01:38:41;;;;;;;4.17;2.33;;;13.00;99.90;;;;;;5081435;28;20441;-72
2023/03/18 01:41:09;;;;;;;2.60;1.73;;;13.10;99.90;;;;;;5079470;28;20439;-72
2023/03/18 01:43:39;;;;;;;2.37;1.90;;;13.10;99.90;;;;;;5073755;28;20875;-72
2023/03/18 01:46:32;;;;;;;4.30;2.57;;;13.00;99.90;;;;;;5064662;28;20947;-72
2023/03/18 01:49:02;;;;;;;5.77;1.70;;;13.00;99.90;;;;;;5065515;28;20531;-72
2023/03/18 01:51:30;;;;;;;1.80;1.70;;;13.10;99.90;;;;;;5063309;28;20916;-72
2023/03/18 01:54:02;;;;;;;3.10;2.10;;;13.10;99.90;;;;;;5074616;28;20553;-72
2023/03/18 01:56:29;;;;;;;2.50;1.77;;;13.10;99.90;;;;;;5069443;28;20474;-72
2023/03/18 01:58:59;;;;;;;2.70;1.93;;;13.10;99.90;;;;;;5072939;28;20891;-72
2023/03/18 02:01:32;;;;;;;1.70;1.60;;;13.00;99.90;;;;;;5069046;28;20486;-72
2023/03/18 02:04:01;;;;;;;3.60;2.00;;;12.90;99.90;;;;;;5070119;28;20507;-72
2023/03/18 02:06:29;;;;;;;2.50;1.87;;;12.90;99.90;;;;;;5061711;28;20507;-72
2023/03/18 02:08:57;;;;;;;4.00;1.70;;;13.10;99.90;;;;;;5068347;28;20451;-72
2023/03/18 02:11:24;;;;;;;4.30;2.10;;;13.10;99.90;;;;;;5071691;28;20589;-72
2023/03/18 02:13:52;;;;;;;4.07;2.00;;;13.10;99.90;;;;;;5067175;28;20459;-72
2023/03/18 02:16:24;;;;;;;6.90;3.10;;;13.10;99.90;;;;;;5071991;28;20470;-72
2023/03/18 02:18:55;;;;;;;5.60;2.40;;;13.10;99.90;;;;;;5065282;28;20447;-71
2023/03/18 02:21:37;;;;;;;3.87;1.83;;;13.10;99.90;;;;;;5063655;28;20665;-71
2023/03/18 02:24:16;;;;;;;3.10;1.87;;;13.10;99.90;;;;;;5071094;28;20516;-71
2023/03/18 02:26:48;;;;;;;4.00;1.77;;;13.10;99.90;;;;;;5060063;28;20512;-71
2023/03/18 02:29:20;;;;;;;3.10;2.53;;;13.20;99.90;;;;;;5071732;28;20446;-71
2023/03/18 02:31:48;;;;;;;2.70;2.00;;;13.30;99.90;;;;;;5061761;28;20566;-71
2023/03/18 02:34:16;;;;;;;2.70;1.77;;;13.40;99.90;;;;;;5071949;28;20523;-73
2023/03/18 02:36:43;;;;;;;3.17;1.93;;;13.40;99.90;;;;;;5076228;28;20565;-72
2023/03/18 02:39:14;;;;;;;2.97;2.00;;;13.30;99.90;;;;;;5069067;28;20523;-71
2023/03/18 02:41:42;;;;;;;4.20;2.07;;;13.40;99.90;;;;;;5070655;28;20450;-71
2023/03/18 02:44:10;;;;;;;4.03;1.87;;;13.50;99.90;;;;;;5065945;28;20459;-71
2023/03/18 02:46:47;;;;;;;1.77;1.40;;;13.40;99.90;;;;;;5069691;28;20491;-72
2023/03/18 02:49:17;;;;;;;2.80;1.40;;;13.40;99.90;;;;;;5070899;28;20486;-73
2023/03/18 02:51:44;;;;;;;4.77;2.10;;;13.50;99.90;;;;;;5059763;28;20541;-71
2023/03/18 02:54:14;;;;;;;4.37;1.90;;;13.40;99.90;;;;;;5065407;28;20500;-72
2023/03/18 02:56:42;;;;;;;4.60;2.13;;;13.30;99.90;;;;;;5064924;28;20477;-72
2023/03/18 02:59:11;;;;;;;5.27;1.67;;;13.40;99.90;;;;;;5071678;28;20989;-72
2023/03/18 03:01:41;;;;;;;2.27;1.60;;;13.50;99.90;;;;;;5062150;28;20443;-72
2023/03/18 03:04:09;;;;;;;3.33;2.07;;;13.40;99.90;;;;;;5060095;28;20893;-72
2023/03/18 03:06:36;;;;;;;2.90;1.27;;;13.20;99.90;;;;;;5071711;28;21096;-72
2023/03/18 03:09:04;;;;;;;2.27;1.70;;;13.20;99.90;;;;;;5068941;28;20867;-72
2023/03/18 03:11:32;;;;;;;2.10;1.90;;;13.10;99.90;;;;;;5053085;28;20493;-72
2023/03/18 03:13:59;;;;;;;2.17;1.97;;;13.20;99.90;;;;;;5071954;28;20824;-72
2023/03/18 03:16:27;;;;;;;2.63;1.80;;;13.30;99.90;;;;;;5070827;28;20482;-72
2023/03/18 03:18:56;;;;;;;3.30;2.30;;;13.20;99.90;;;;;;5071495;28;20462;-72
2023/03/18 03:21:23;;;;;;;6.07;2.10;;;13.00;99.90;;;;;;5068684;28;20447;-72
2023/03/18 03:23:51;;;;;;;5.03;2.37;;;13.00;99.90;;;;;;5074438;28;20473;-71
2023/03/18 03:26:18;;;;;;;3.30;2.20;;;12.90;99.90;;;;;;5074603;28;20470;-72
2023/03/18 03:28:45;;;;;;;2.70;2.00;;;12.80;99.90;;;;;;5072677;28;20537;-73
2023/03/18 03:31:13;;;;;;;5.77;2.00;;;12.80;99.90;;;;;;5062233;28;20473;-73
2023/03/18 03:33:42;;;;;;;8.70;2.00;;;12.80;99.90;;;;;;5075114;28;20458;-73
2023/03/18 03:36:12;;;;;;;4.73;2.53;;;12.70;99.90;;;;;;5071591;28;20479;-73
2023/03/18 03:38:41;;;;;;;7.53;2.10;;;12.70;99.90;;;;;;5074441;28;20526;-72
2023/03/18 03:41:10;;;;;;;9.63;2.30;;;12.70;99.90;;;;;;5071965;28;20451;-72
2023/03/18 03:43:37;;;;;;;4.90;2.60;;;12.60;99.90;;;;;;5073435;28;20450;-72
2023/03/18 03:46:09;;;;;;;4.00;2.30;;;12.50;99.90;;;;;;5080951;28;20797;-72
2023/03/18 03:48:37;;;;;;;4.03;2.33;;;12.50;99.90;;;;;;5085990;28;20541;-72
2023/03/18 03:51:04;;;;;;;12.13;2.60;;;12.50;99.90;;;;;;5075417;28;20987;-72
2023/03/18 03:53:33;;;;;;;4.50;2.20;;;12.60;99.90;;;;;;5069285;28;20553;-72
2023/03/18 03:56:00;;;;;;;2.70;2.33;;;12.60;99.90;;;;;;5074814;28;20447;-72
2023/03/18 03:58:27;;;;;;;3.93;2.13;;;12.60;99.90;;;;;;5075077;28;20442;-72
2023/03/18 04:00:54;;;;;;;6.33;2.30;;;12.50;99.90;;;;;;5073783;28;20512;-72
2023/03/18 04:03:21;;;;;;;7.83;3.63;;;12.40;99.90;;;;;;5055994;28;20522;-72
2023/03/18 04:05:49;;;;;;;5.60;2.30;;;12.40;99.90;;;;;;5066933;28;20478;-72
2023/03/18 04:08:15;;;;;;;17.80;2.43;;;12.40;99.90;;;;;;5073195;28;20767;-72
2023/03/18 04:10:44;;;;;;;4.27;2.53;;;12.40;99.90;;;;;;5071454;28;20533;-72
2023/03/18 04:13:11;;;;;;;4.50;2.37;;;12.20;99.90;;;;;;5070224;28;20500;-72
2023/03/18 04:15:38;;;;;;;2.47;2.27;;;12.20;99.90;;;;;;5074796;28;20525;-72
2023/03/18 04:18:06;;;;;;;7.87;3.60;;;12.20;99.90;;;;;;5066582;28;20501;-72
2023/03/18 04:20:34;;;;;;;3.27;2.30;;;12.20;99.90;;;;;;5073150;28;20458;-72
2023/03/18 04:23:01;;;;;;;2.80;2.07;;;12.20;99.90;;;;;;5073352;28;21029;-72
2023/03/18 04:25:29;;;;;;;4.67;2.70;;;12.20;99.90;;;;;;5068869;28;20474;-72
2023/03/18 04:27:57;;;;;;;4.80;3.07;;;12.20;99.90;;;;;;5073995;28;20470;-72
2023/03/18 04:30:26;;;;;;;3.37;3.07;;;12.20;99.90;;;;;;5074622;28;20915;-72
2023/03/18 04:32:54;;;;;;;5.30;2.70;;;12.20;99.90;;;;;;5069598;28;20454;-72
2023/03/18 04:35:22;;;;;;;5.83;3.90;;;12.20;99.90;;;;;;5077417;28;20520;-72
2023/03/18 04:37:49;;;;;;;3.93;2.93;;;12.10;99.90;;;;;;5077815;28;20482;-72
2023/03/18 04:40:16;;;;;;;5.47;2.60;;;12.10;99.90;;;;;;5070141;28;20550;-72
2023/03/18 04:42:44;;;;;;;4.07;2.73;;;12.10;99.90;;;;;;5067533;28;20473;-72
2023/03/18 04:45:13;;;;;;;3.40;2.63;;;12.20;99.90;;;;;;5073697;28;20458;-72
2023/03/18 04:47:41;;;;;;;8.67;2.70;;;12.20;99.90;;;;;;5073332;28;20539;-72
2023/03/18 04:50:11;;;;;;;3.50;2.60;;;12.20;99.90;;;;;;5053679;28;20506;-72
2023/03/18 04:52:38;;;;;;;5.80;3.10;;;12.30;99.90;;;;;;5059248;28;20496;-72
2023/03/18 04:55:07;;;;;;;4.23;3.10;;;12.50;99.90;;;;;;5072267;28;21021;-72
2023/03/18 04:57:36;;;;;;;4.60;3.03;;;12.40;99.90;;;;;;5069337;28;20474;-72
2023/03/18 05:00:05;;;;;;;8.70;2.70;;;12.50;99.90;;;;;;5067575;28;20466;-72
2023/03/18 05:02:34;;;;;;;8.83;3.10;;;12.40;99.90;;;;;;5060935;28;20454;-72
2023/03/18 05:05:01;;;;;;;3.63;2.17;;;12.50;99.90;;;;;;5071122;28;20487;-72
2023/03/18 05:07:28;;;;;;;2.53;2.20;;;12.40;99.90;;;;;;5064676;28;20478;-72
2023/03/18 05:09:55;;;;;;;4.53;2.43;;;12.40;99.90;;;;;;5072574;28;20538;-72
2023/03/18 05:12:24;;;;;;;3.83;2.60;;;12.50;99.90;;;;;;5073012;28;20549;-72
2023/03/18 05:14:51;;;;;;;2.53;2.07;;;12.50;99.90;;;;;;5070198;28;20965;-72
2023/03/18 05:17:19;;;;;;;3.87;3.00;;;12.50;99.90;;;;;;5065818;28;20472;-72
2023/03/18 05:19:48;;;;;;;4.77;3.23;;;12.60;99.90;;;;;;5059974;28;20451;-72
2023/03/18 05:22:17;;;;;;;3.10;2.73;;;12.70;99.90;;;;;;5065420;28;20470;-72
2023/03/18 05:24:45;;;;;;;2.80;1.97;;;12.80;99.90;;;;;;5069677;28;20539;-72
2023/03/18 05:27:17;;;;;;;10.33;2.93;;;12.80;99.90;;;;;;5063300;28;20484;-72
2023/03/18 05:29:44;;;;;;;4.60;2.80;;;12.80;99.90;;;;;;5071429;28;20530;-72
2023/03/18 05:32:11;;;;;;;3.10;2.70;;;12.90;99.90;;;;;;5071434;28;20498;-72
2023/03/18 05:34:40;;;;;;;8.00;3.27;;;12.90;99.90;;;;;;5082364;28;20474;-73
2023/03/18 05:37:10;;;;;;;7.03;4.70;;;12.90;99.90;;;;;;5068869;28;20461;-73
2023/03/18 05:39:38;;;;;;;2.60;2.40;;;12.90;99.90;;;;;;5062256;28;20816;-72
2023/03/18 05:42:05;;;;;;;10.27;2.70;;;12.90;99.90;;;;;;5072456;28;20911;-72
2023/03/18 05:44:33;;;;;;;5.27;3.37;;;12.80;99.90;;;;;;5072083;28;20526;-72
2023/03/18 05:47:01;;;;;;;2.30;2.00;;;12.80;99.90;;;;;;5072071;28;20504;-72
2023/03/18 05:49:28;;;;;;;3.70;2.97;;;12.80;99.90;;;;;;5062164;28;20447;-72
2023/03/18 05:51:55;;;;;;;5.23;3.13;;;12.80;99.90;;;;;;5065749;28;20566;-72
2023/03/18 05:54:24;;;;;;;7.53;2.70;;;12.90;99.90;;;;;;5066538;28;20428;-72
2023/03/18 05:56:51;;;;;;;3.37;2.93;;;12.90;99.90;;;;;;5073280;28;20546;-72
2023/03/18 05:59:19;;;;;;;6.03;2.20;;;12.80;99.90;;;;;;5061562;28;20426;-72
2023/03/18 06:01:47;;;;;;;7.80;2.37;;;12.90;99.90;;;;;;5062455;28;20433;-72
2023/03/18 06:04:16;;;;;;;3.73;2.43;;;12.80;99.90;;;;;;5064731;28;20490;-72
2023/03/18 06:06:43;;;;;;;3.43;2.77;;;12.80;99.90;;;;;;5062249;28;20794;-72
2023/03/18 06:09:12;;;;;;;4.33;2.70;;;12.60;99.90;;;;;;5052422;28;20486;-72
2023/03/18 06:11:40;;;;;;;2.20;1.63;;;12.60;99.90;;;;;;5071632;28;20513;-72
2023/03/18 06:14:08;;;;;;;5.37;3.90;;;12.70;99.90;;;;;;5072455;28;20446;-72
2023/03/18 06:16:36;;;;;;;7.70;3.07;;;12.80;99.90;;;;;;5072323;28;20477;-72
2023/03/18 06:19:04;;;;;;;10.30;3.40;;;12.80;99.90;;;;;;5066567;28;20455;-72
2023/03/18 06:21:32;;;;;;;11.53;2.97;;;12.80;99.90;;;;;;5068096;28;20451;-72
2023/03/18 06:24:00;;;;;;;4.00;3.30;;;13.00;99.90;;;;;;5072199;28;20450;-72
2023/03/18 06:26:27;;;;;;;2.97;2.10;;;13.00;99.90;;;;;;5071838;28;20527;-72
2023/03/18 06:28:57;;;;;;;5.03;3.60;;;13.00;99.90;;;;;;5073223;28;20534;-72
2023/03/18 06:31:24;;;;;;;2.40;2.20;;;13.10;99.90;;;;;;5068585;28;20475;-72
2023/03/18 06:33:52;;;;;;;6.47;2.50;;;13.10;99.90;;;;;;5071971;28;20443;-72
2023/03/18 06:36:19;;;;;;;10.73;2.87;;;13.20;99.90;;;;;;5056980;28;20998;-72
2023/03/18 06:38:46;;;;;;;7.10;5.07;;;13.20;99.90;;;;;;5071110;28;20451;-72
2023/03/18 06:41:13;;;;;;;4.20;3.00;;;13.30;99.90;;;;;;5065914;28;20474;-72
2023/03/18 06:43:40;;;;;;;2.73;2.20;;;13.40;99.90;;;;;;5061517;28;20454;-73
2023/03/18 06:46:09;;;;;;;5.23;3.80;;;13.40;99.90;;;;;;5070419;28;20664;-72
2023/03/18 06:48:39;;;;;;;3.63;3.33;;;13.40;99.90;;;;;;5072209;28;20478;-73
2023/03/18 06:51:06;;;;;;;3.57;2.20;;;13.50;99.90;;;;;;5066646;28;20482;-72
2023/03/18 06:53:35;;;;;;;4.67;3.37;;;13.60;99.90;;;;;;5057556;28;20463;-72
2023/03/18 06:56:02;;;;;;;6.27;3.07;;;13.40;99.90;;;;;;5066416;28;20457;-72
2023/03/18 06:58:32;;;;;;;4.83;3.07;;;13.40;99.90;;;;;;5075482;28;20515;-72
2023/03/18 07:01:00;;;;;;;2.63;1.87;;;13.50;99.90;;;;;;5074979;28;20458;-72
2023/03/18 07:03:29;;;;;;;9.40;4.33;;;13.50;99.90;;;;;;5074921;28;20486;-72
2023/03/18 07:05:56;;;;;;;7.50;3.77;;;13.50;99.90;;;;;;5069494;28;20534;-72
2023/03/18 07:08:23;;;;;;;4.47;3.40;;;13.60;99.90;;;;;;5073199;28;20461;-72
2023/03/18 07:10:52;;;;;;;7.17;3.73;;;13.50;99.90;;;;;;5079344;28;20445;-72
2023/03/18 07:13:20;;;;;;;9.63;3.80;;;13.40;99.90;;;;;;5070688;28;20465;-72
2023/03/18 07:15:48;;;;;;;5.40;4.10;;;13.40;99.90;;;;;;5074307;28;20951;-72
2023/03/18 07:18:18;;;;;;;5.73;4.23;;;13.40;99.90;;;;;;5075819;28;20466;-72
2023/03/18 07:20:47;;;;;;;4.83;3.77;;;13.50;99.90;;;;;;5062766;28;20466;-72
2023/03/18 07:23:14;;;;;;;7.40;3.67;;;13.60;99.90;;;;;;5059352;28;20451;-72
2023/03/18 07:25:44;;;;;;;4.80;3.70;;;13.70;99.90;;;;;;5063283;28;20463;-72
2023/03/18 07:28:11;;;;;;;7.83;3.70;;;13.80;99.90;;;;;;5076004;28;20487;-72
2023/03/18 07:30:38;;;;;;;4.93;3.60;;;13.80;99.90;;;;;;5061446;28;20470;-72
2023/03/18 07:33:05;;;;;;;4.47;3.40;;;14.00;99.90;;;;;;5071558;28;20534;-72
2023/03/18 07:35:33;;;;;;;3.63;3.13;;;14.10;99.90;;;;;;5072728;28;20450;-72
2023/03/18 07:38:02;;;;;;;6.80;3.83;;;14.40;99.90;;;;;;5075380;28;20474;-72
2023/03/18 07:40:31;;;;;;;7.57;3.97;;;14.40;99.90;;;;;;5074840;28;20461;-72
2023/03/18 07:42:58;;;;;;;6.50;3.67;;;14.40;99.90;;;;;;5068330;28;20487;-72
2023/03/18 07:45:25;;;;;;;4.60;3.40;;;14.40;99.90;;;;;;5060499;28;20525;-72
2023/03/18 07:47:52;;;;;;;3.97;3.10;;;14.30;99.90;;;;;;5068348;28;20944;-72
2023/03/18 07:50:19;;;;;;;6.90;3.37;;;14.40;99.90;;;;;;5058916;28;20965;-72
2023/03/18 07:52:46;;;;;;;3.43;2.80;;;14.60;99.90;;;;;;5082087;28;20502;-72
2023/03/18 07:55:14;;;;;;;4.77;3.83;;;14.70;99.90;;;;;;5070014;28;20871;-72
2023/03/18 07:57:42;;;;;;;5.20;3.57;;;14.70;99.90;;;;;;5073031;28;21010;-72
2023/03/18 08:00:11;;;;;;;4.50;3.30;;;14.90;99.90;;;;;;5062609;28;20463;-72
2023/03/18 08:02:38;;;;;;;7.83;3.17;;;14.80;99.90;;;;;;5069829;28;20486;-72
2023/03/18 08:05:06;;;;;;;5.90;2.63;;;14.70;99.90;;;;;;5069124;28;20448;-72
2023/03/18 08:07:33;;;;;;;4.20;3.30;;;14.70;99.90;;;;;;5069268;28;20486;-72
2023/03/18 08:10:00;;;;;;;4.83;3.33;;;14.80;99.90;;;;;;5064942;28;20469;-72
2023/03/18 08:12:28;;;;;;;3.20;2.77;;;15.00;99.90;;;;;;5067662;28;20485;-72
2023/03/18 08:14:55;;;;;;;3.63;2.87;;;15.10;99.90;;;;;;5064314;28;20910;-72
2023/03/18 08:17:22;;;;;;;6.80;3.47;;;15.20;99.90;;;;;;5072870;28;20480;-72
2023/03/18 08:19:49;;;;;;;3.80;2.60;;;15.30;99.90;;;;;;5074735;28;20522;-72
2023/03/18 08:22:17;;;;;;;4.13;3.10;;;15.40;99.90;;;;;;5074868;28;20439;-73
2023/03/18 08:24:45;;;;;;;9.10;3.47;;;15.70;99.90;;;;;;5069339;28;20537;-72
2023/03/18 08:27:12;;;;;;;4.50;2.73;;;15.90;99.90;;;;;;5068928;28;20483;-71
2023/03/18 08:29:40;;;;;;;5.70;3.10;;;16.80;99.90;;;;;;5071894;28;20469;-71
2023/03/18 08:32:08;;;;;;;3.33;2.43;;;18.10;99.90;;;;;;5077898;28;20478;-71
2023/03/18 08:34:39;;;;;;;3.23;2.93;;;19.10;99.90;;;;;;5071822;28;20455;-71
2023/03/18 08:37:06;;;;;;;3.63;2.97;;;19.10;99.90;;;;;;5055979;28;20463;-71
2023/03/18 08:39:33;;;;;;;3.50;2.27;;;18.80;99.90;;;;;;5074569;28;20446;-71
2023/03/18 08:42:03;;;;;;;5.40;3.10;;;18.60;99.90;;;;;;5071405;28;20457;-71
2023/03/18 08:44:30;;;;;;;3.13;2.40;;;18.30;99.90;;;;;;5065420;28;20749;-71
2023/03/18 08:46:59;;;;;;;9.73;3.23;;;18.20;99.90;;;;;;5072912;28;20528;-71
2023/03/18 08:49:26;;;;;;;3.50;2.60;;;18.40;99.90;;;;;;5060299;28;20463;-71
2023/03/18 08:51:53;;;;;;;6.67;2.87;;;18.50;99.90;;;;;;5064220;28;20515;-71
2023/03/18 08:54:20;;;;;;;4.27;2.40;;;19.30;99.90;;;;;;5071136;28;20446;-73
2023/03/18 08:56:47;;;;;;;4.60;2.40;;;19.60;99.90;;;;;;5065142;28;20484;-72
2023/03/18 08:59:14;;;;;;;2.60;2.20;;;19.10;99.90;;;;;;5064011;28;20478;-72
2023/03/18 09:01:41;;;;;;;3.50;2.50;;;18.90;99.90;;;;;;5064244;28;20800;-72
2023/03/18 09:04:09;;;;;;;2.87;2.23;;;19.70;99.90;;;;;;5070279;28;20894;-72
2023/03/18 09:06:38;;;;;;;3.57;2.10;;;20.80;99.90;;;;;;5070153;28;20967;-72
2023/03/18 09:09:05;;;;;;;4.30;3.20;;;22.20;99.90;;;;;;5070751;28;20504;-72
2023/03/18 09:11:32;;;;;;;2.77;1.60;;;21.80;99.90;;;;;;5063083;28;20451;-71
2023/03/18 09:13:59;;;;;;;2.70;1.80;;;21.00;99.90;;;;;;5075448;28;20546;-71
2023/03/18 09:16:27;;;;;;;4.07;2.23;;;20.80;99.90;;;;;;5073315;28;20474;-72
2023/03/18 09:18:54;;;;;;;3.40;2.97;;;20.40;99.90;;;;;;5072651;28;20900;-72
2023/03/18 09:21:24;;;;;;;3.00;2.23;;;19.90;99.90;;;;;;5072046;28;20809;-71
2023/03/18 09:23:51;;;;;;;6.70;4.10;;;19.10;99.90;;;;;;5073096;28;20463;-72
2023/03/18 09:26:18;;;;;;;5.13;3.53;;;18.70;99.90;;;;;;5072401;28;20508;-72
2023/03/18 09:28:45;;;;;;;3.33;1.70;;;18.30;99.90;;;;;;5063189;28;20448;-72
2023/03/18 09:31:14;;;;;;;4.33;2.70;;;18.00;99.90;;;;;;5074454;28;20439;-72
2023/03/18 09:33:41;;;;;;;3.13;2.00;;;17.50;99.90;;;;;;5076232;28;20474;-72
2023/03/18 09:36:09;;;;;;;2.40;2.20;;;17.30;99.90;;;;;;5078533;28;20474;-72
2023/03/18 09:38:38;;;;;;;3.63;2.40;;;17.30;99.90;;;;;;5072689;28;20463;-72
2023/03/18 09:41:17;;;;;;;3.60;2.37;;;17.20;99.90;;;;;;5055293;28;20444;-72
2023/03/18 09:44:02;;;;;;;6.73;2.47;;;17.30;99.90;;;;;;5072753;28;20905;-72
2023/03/18 09:46:41;;;;;;;3.20;2.27;;;17.30;99.90;;;;;;5062013;28;20481;-72
2023/03/18 09:49:33;;;;;;;4.37;2.20;;;17.30;99.90;;;;;;5067937;28;20446;-72
2023/03/18 09:52:13;;;;;;;5.87;2.63;;;17.90;99.90;;;;;;5069916;28;20499;-72
2023/03/18 09:54:46;;;;;;;2.60;1.90;;;18.40;99.90;;;;;;5066435;28;20836;-72
2023/03/18 09:57:19;;;;;;;2.50;2.10;;;18.10;99.90;;;;;;5070136;28;20859;-72
2023/03/18 09:59:48;;;;;;;3.07;2.00;;;17.90;99.90;;;;;;5068733;28;20596;-72
2023/03/18 10:02:22;;;;;;;3.20;1.70;;;18.00;99.90;;;;;;5069110;28;20478;-72
2023/03/18 10:04:55;;;;;;;2.33;1.90;;;18.20;99.90;;;;;;5066688;28;20815;-72
2023/03/18 10:07:26;;;;;;;3.90;2.67;;;17.90;99.90;;;;;;5070463;28;20841;-72
2023/03/18 10:10:02;;;;;;;3.47;2.67;;;18.00;99.90;;;;;;5065804;28;20443;-71
2023/03/18 10:12:34;;;;;;;2.80;2.00;;;18.10;99.90;;;;;;5064874;28;21054;-72
2023/03/18 10:15:10;;;;;;;6.73;2.47;;;18.20;99.90;;;;;;5070800;28;20450;-72
2023/03/18 10:17:40;;;;;;;2.60;2.40;;;18.70;99.90;;;;;;5061986;28;20514;-72
2023/03/18 10:20:26;;;;;;;2.53;2.00;;;19.00;99.90;;;;;;5063451;28;20471;-72
2023/03/18 10:23:05;;;;;;;2.13;1.77;;;19.90;99.90;;;;;;5067572;28;20463;-72
2023/03/18 10:25:38;;;;;;;6.37;2.70;;;20.10;99.90;;;;;;5067772;28;20449;-72
2023/03/18 10:28:51;;;;;;;2.10;1.90;;;21.20;99.90;;;;;;5069725;28;20501;-72
2023/03/18 10:31:25;;;;;;;2.67;1.93;;;21.20;99.90;;;;;;5051342;28;20661;-72
2023/03/18 10:33:58;;;;;;;2.83;2.20;;;21.30;99.90;;;;;;5064848;28;20483;-72
2023/03/18 10:36:31;;;;;;;4.30;2.00;;;21.80;99.90;;;;;;5073494;28;20486;-72
2023/03/18 10:39:01;;;;;;;3.13;2.57;;;22.80;99.90;;;;;;5073607;28;20488;-72
2023/03/18 10:41:34;;;;;;;2.37;2.00;;;22.80;99.90;;;;;;5071112;28;20459;-72
2023/03/18 10:44:06;;;;;;;3.57;2.20;;;22.00;99.90;;;;;;5070454;28;20870;-72
2023/03/18 10:46:36;;;;;;;2.00;1.80;;;21.80;99.90;;;;;;5074268;28;20466;-72
2023/03/18 10:49:09;;;;;;;1.47;1.37;;;23.00;99.90;;;;;;5086315;28;20512;-72
2023/03/18 10:51:44;;;;;;;2.97;1.90;;;23.90;99.90;;;;;;5082094;28;20489;-71
2023/03/18 10:54:15;;;;;;;3.90;2.50;;;23.70;99.90;;;;;;5086866;28;20469;-72
2023/03/18 10:56:44;;;;;;;3.00;2.30;;;24.20;99.90;;;;;;5074589;28;20558;-72
2023/03/18 10:59:16;;;;;;;3.77;2.30;;;23.80;99.90;;;;;;5072651;28;20478;-72
2023/03/18 11:01:47;;;;;;;2.50;2.17;;;23.10;99.90;;;;;;5064007;28;20474;-72
2023/03/18 11:04:17;;;;;;;4.90;2.70;;;22.30;99.90;;;;;;5070281;28;20458;-73
2023/03/18 11:06:48;;;;;;;5.13;3.37;;;21.50;99.90;;;;;;5076390;28;20477;-73
2023/03/18 11:09:17;;;;;;;3.93;2.13;;;21.40;99.90;;;;;;5075476;28;20525;-72
2023/03/18 11:11:47;;;;;;;2.33;1.77;;;22.80;99.90;;;;;;5074549;28;20462;-72
2023/03/18 11:14:17;;;;;;;5.23;2.13;;;24.70;99.90;;;;;;5078140;28;20851;-72
2023/03/18 11:16:49;;;;;;;3.53;2.23;;;26.10;99.30;;;;;;5070040;28;20481;-72
2023/03/18 11:19:30;;;;;;;6.30;1.87;;;26.00;96.70;;;;;;5072820;28;20481;-73
2023/03/18 11:22:17;;;;;;;2.30;2.10;;;25.10;97.00;;;;;;5070252;28;20552;-72
2023/03/18 11:25:00;;;;;;;3.47;1.77;;;23.90;97.80;;;;;;5066685;28;20508;-72
2023/03/18 11:27:35;;;;;;;2.10;1.90;;;22.80;99.90;;;;;;5069045;28;20482;-72
2023/03/18 11:30:10;;;;;;;3.27;2.03;;;22.70;99.90;;;;;;5081337;28;20483;-72
2023/03/18 11:32:37;;;;;;;3.17;2.23;;;23.00;99.90;;;;;;5064632;28;20471;-73
2023/03/18 11:35:07;;;;;;;2.40;1.77;;;24.90;99.30;;;;;;5058959;28;20845;-73
2023/03/18 11:37:37;;;;;;;2.20;2.00;;;25.20;97.30;;;;;;5070613;28;20490;-73
2023/03/18 11:40:17;;;;;;;2.40;2.10;;;25.30;99.00;;;;;;5067240;28;20558;-72
2023/03/18 11:42:47;;;;;;;2.57;2.37;;;25.20;96.30;;;;;;5065508;28;20966;-72
2023/03/18 11:45:41;;;;;;;2.80;2.07;;;25.00;97.30;;;;;;5068275;28;20458;-73
2023/03/18 11:48:18;;;;;;;7.80;2.50;;;26.20;95.20;;;;;;5060747;28;20478;-73
2023/03/18 11:51:02;;;;;;;3.27;1.97;;;27.60;93.60;;;;;;5067477;28;20627;-73
2023/03/18 11:53:42;;;;;;;4.70;1.60;;;28.60;91.10;;;;;;5071145;28;20500;-72
2023/03/18 11:56:16;;;;;;;2.27;1.83;;;28.80;89.40;;;;;;5064677;28;20531;-72
2023/03/18 11:58:56;;;;;;;2.80;1.60;;;29.20;84.70;;;;;;5063529;28;20532;-72
2023/03/18 12:01:30;;;;;;;3.10;1.80;;;28.10;83.50;;;;;;5064993;28;21004;-72
2023/03/18 12:04:37;;;;;;;2.67;1.83;;;27.40;86.40;;;;;;5067479;28;20438;-72
2023/03/18 12:07:29;;;;;;;2.43;2.20;;;27.20;87.90;;;;;;5065051;28;20573;-72
2023/03/18 12:10:04;;;;;;;2.70;2.00;;;28.10;87.20;;;;;;5064567;28;20877;-72
2023/03/18 12:12:50;;;;;;;2.33;1.87;;;28.50;82.70;;;;;;5069005;28;20442;-72
2023/03/18 12:15:27;;;;;;;2.97;1.70;;;28.90;79.70;;;;;;5071767;28;20520;-72
2023/03/18 12:18:05;;;;;;;2.53;2.33;;;28.80;80.90;;;;;;5071661;28;20558;-72
2023/03/18 12:20:49;;;;;;;2.60;2.00;;;28.60;78.80;;;;;;5070256;28;20449;-72
2023/03/18 12:23:46;;;;;;;3.73;2.77;;;28.20;79.00;;;;;;5068815;28;20446;-72
2023/03/18 12:26:19;;;;;;;4.07;2.30;;;26.90;80.60;;;;;;5063328;28;20479;-71
2023/03/18 12:29:11;;;;;;;3.23;2.40;;;25.80;84.00;;;;;;5064669;28;21082;-72
2023/03/18 12:32:02;;;;;;;1.83;1.50;;;25.10;86.10;;;;;;5069422;28;20486;-71
2023/03/18 12:34:49;;;;;;;2.30;2.10;;;24.20;87.60;;;;;;5071891;28;20474;-71
2023/03/18 12:37:31;;;;;;;3.33;2.00;;;23.60;88.40;;;;;;5062545;28;20521;-73
2023/03/18 12:40:14;;;;;;;2.83;2.10;;;23.50;90.30;;;;;;5066695;28;20483;-72
2023/03/18 12:43:08;;;;;;;3.10;2.10;;;23.50;90.70;;;;;;5083431;28;21012;-72
2023/03/18 12:45:39;;;;;;;1.93;1.70;;;23.90;90.50;;;;;;5078185;28;20455;-72
2023/03/18 12:48:12;;;;;;;2.10;1.73;;;25.20;88.80;;;;;;5063514;28;20471;-72
2023/03/18 12:50:42;;;;;;;1.90;1.70;;;26.80;86.50;;;;;;5061553;28;20459;-72
2023/03/18 12:53:15;;;;;;;2.23;1.73;;;27.00;81.20;;;;;;5073725;28;20557;-72
2023/03/18 12:55:45;;;;;;;2.03;1.73;;;25.40;82.20;;;;;;5060055;28;20460;-71
2023/03/18 12:58:16;;;;;;;1.70;1.40;;;24.10;86.50;;;;;;5066729;28;20470;-71
2023/03/18 13:00:49;;;;;;;1.90;1.50;;;23.60;89.10;;;;;;5064185;28;20482;-74